createdAt,value
2018-03-04T00:00:00.646Z,55.71
2018-03-04T00:02:29.329Z,59.65
2018-03-04T00:04:58.074Z,60.58
2018-03-04T00:07:26.800Z,58.00
2018-03-04T00:09:55.595Z,57.42
2018-03-04T00:12:24.281Z,59.14
2018-03-04T00:14:52.967Z,62.75
2018-03-04T00:17:22.059Z,61.80
2018-03-04T00:19:50.639Z,60.08
2018-03-04T00:22:19.253Z,59.18
2018-03-04T00:24:48.171Z,58.29
2018-03-04T00:27:16.902Z,56.24
2018-03-04T00:29:45.553Z,57.16
2018-03-04T00:32:14.274Z,60.17
2018-03-04T00:34:42.914Z,59.89
2018-03-04T00:37:11.648Z,60.93
2018-03-04T00:39:41.462Z,59.14
2018-03-04T00:42:10.147Z,57.60
2018-03-04T00:44:38.724Z,56.42
2018-03-04T00:47:07.673Z,59.01
2018-03-04T00:49:37.027Z,59.31
2018-03-04T00:52:05.663Z,57.60
2018-03-04T00:54:35.155Z,54.84
2018-03-04T00:57:04.621Z,54.67
2018-03-04T00:59:33.307Z,54.02
2018-03-04T01:02:02.034Z,53.43
2018-03-04T01:04:31.490Z,53.58
2018-03-04T01:07:00.122Z,52.13
2018-03-04T01:09:29.892Z,52.39
2018-03-04T01:11:58.468Z,54.68
2018-03-04T01:14:27.060Z,57.36
2018-03-04T01:16:55.841Z,58.25
2018-03-04T01:19:24.483Z,57.95
2018-03-04T01:21:53.214Z,57.10
2018-03-04T01:24:22.394Z,57.79
2018-03-04T01:26:51.101Z,58.53
2018-03-04T01:29:19.789Z,57.32
2018-03-04T01:31:48.722Z,57.40
2018-03-04T01:34:18.178Z,56.65
2018-03-04T01:36:46.806Z,57.04
2018-03-04T01:39:16.426Z,57.63
2018-03-04T01:41:44.973Z,56.70
2018-03-04T01:44:13.738Z,56.81
2018-03-04T01:46:43.450Z,56.80
2018-03-04T01:49:12.136Z,57.18
2018-03-04T01:51:52.963Z,58.62
2018-03-04T01:54:22.410Z,60.28
2018-03-04T01:56:51.049Z,60.32
2018-03-04T01:59:19.781Z,57.96
2018-03-04T02:01:48.434Z,58.56
2018-03-04T02:04:17.153Z,60.84
2018-03-04T02:06:46.038Z,61.79
2018-03-04T02:09:14.736Z,58.60
2018-03-04T02:11:43.420Z,58.38
2018-03-04T02:14:12.472Z,60.83
2018-03-04T02:16:41.197Z,59.43
2018-03-04T02:19:09.884Z,58.67
2018-03-04T02:21:39.270Z,57.83
2018-03-04T02:24:07.979Z,57.81
2018-03-04T02:26:36.554Z,61.79
2018-03-04T02:29:05.300Z,59.92
2018-03-04T02:31:34.751Z,61.22
2018-03-04T02:34:03.436Z,58.67
2018-03-04T02:36:32.372Z,57.84
2018-03-04T02:39:01.776Z,61.46
2018-03-04T02:41:31.238Z,59.33
2018-03-04T02:43:59.912Z,59.21
2018-03-04T02:46:28.610Z,58.08
2018-03-04T02:48:57.158Z,59.91
2018-03-04T02:51:25.981Z,58.77
2018-03-04T02:53:54.666Z,58.08
2018-03-04T02:56:23.352Z,60.23
2018-03-04T02:58:52.028Z,59.73
2018-03-04T03:01:20.603Z,60.65
2018-03-04T03:03:49.301Z,59.39
2018-03-04T03:06:18.245Z,59.61
2018-03-04T03:08:47.703Z,59.90
2018-03-04T03:11:16.390Z,60.32
2018-03-04T03:13:45.272Z,60.08
2018-03-04T03:16:13.958Z,62.44
2018-03-04T03:18:42.500Z,60.76
2018-03-04T03:21:11.452Z,61.96
2018-03-04T03:23:40.016Z,61.24
2018-03-04T03:26:08.701Z,61.29
2018-03-04T03:28:37.695Z,60.61
2018-03-04T03:31:06.348Z,60.76
2018-03-04T03:33:35.066Z,61.25
2018-03-04T03:36:03.951Z,60.89
2018-03-04T03:38:32.647Z,60.55
2018-03-04T03:41:01.293Z,60.79
2018-03-04T03:43:30.019Z,60.38
2018-03-04T03:45:58.704Z,60.73
2018-03-04T03:48:27.241Z,61.38
2018-03-04T03:50:56.782Z,61.60
2018-03-04T03:53:25.474Z,61.68
2018-03-04T03:55:54.124Z,62.86
2018-03-04T03:58:23.116Z,61.57
2018-03-04T04:00:51.840Z,61.00
2018-03-04T04:03:20.525Z,61.07
2018-03-04T04:05:49.211Z,60.98
2018-03-04T04:08:17.897Z,62.12
2018-03-04T04:10:46.530Z,60.97
2018-03-04T04:13:16.047Z,61.56
2018-03-04T04:15:44.777Z,61.88
2018-03-04T04:18:13.465Z,62.35
2018-03-04T04:20:42.457Z,62.57
2018-03-04T04:23:11.241Z,63.65
2018-03-04T04:25:39.933Z,62.80
2018-03-04T04:28:08.920Z,62.09
2018-03-04T04:30:37.572Z,62.52
2018-03-04T04:33:06.292Z,62.45
2018-03-04T04:35:35.087Z,62.47
2018-03-04T04:38:03.773Z,62.60
2018-03-04T04:40:32.413Z,62.19
2018-03-04T04:43:01.610Z,61.75
2018-03-04T04:45:30.156Z,61.06
2018-03-04T04:47:59.635Z,61.58
2018-03-04T04:50:28.430Z,59.71
2018-03-04T04:52:57.120Z,59.76
2018-03-04T04:55:25.803Z,59.63
2018-03-04T04:57:54.796Z,60.69
2018-03-04T05:00:23.985Z,59.75
2018-03-04T05:02:52.573Z,58.49
2018-03-04T05:05:21.462Z,58.60
2018-03-04T05:07:50.153Z,59.20
2018-03-04T05:10:18.838Z,58.69
2018-03-04T05:12:47.572Z,59.02
2018-03-04T05:15:17.023Z,58.98
2018-03-04T05:17:45.657Z,60.28
2018-03-04T05:20:15.129Z,60.28
2018-03-04T05:22:43.843Z,59.25
2018-03-04T05:25:13.302Z,58.94
2018-03-04T05:27:42.097Z,58.46
2018-03-04T05:30:10.783Z,57.99
2018-03-04T05:32:39.469Z,57.12
2018-03-04T05:35:08.257Z,56.29
2018-03-04T05:37:36.942Z,54.27
2018-03-04T05:40:05.516Z,54.60
2018-03-04T05:42:34.214Z,55.11
2018-03-04T05:45:02.898Z,53.88
2018-03-04T05:47:31.692Z,53.18
2018-03-04T05:50:00.368Z,53.21
2018-03-04T05:52:29.056Z,52.36
2018-03-04T05:54:57.741Z,51.54
2018-03-04T05:57:26.693Z,53.31
2018-03-04T05:59:55.420Z,55.46
2018-03-04T06:02:24.107Z,53.63
2018-03-04T06:04:53.102Z,56.67
2018-03-04T06:07:21.786Z,54.26
2018-03-04T06:09:50.360Z,53.39
2018-03-04T06:12:23.073Z,55.35
2018-03-04T06:14:51.836Z,55.98
2018-03-04T06:17:20.461Z,53.67
2018-03-04T06:19:49.924Z,50.97
2018-03-04T06:22:18.570Z,51.69
2018-03-04T06:24:47.316Z,51.58
2018-03-04T06:27:16.212Z,50.89
2018-03-04T06:29:44.873Z,49.82
2018-03-04T06:32:13.517Z,50.91
2018-03-04T06:34:42.428Z,54.97
2018-03-04T06:37:11.078Z,52.69
2018-03-04T06:39:40.538Z,51.75
2018-03-04T06:42:09.568Z,50.96
2018-03-04T06:44:39.041Z,49.80
2018-03-04T06:47:07.724Z,48.74
2018-03-04T06:49:36.509Z,47.96
2018-03-04T06:52:05.136Z,49.21
2018-03-04T06:54:34.595Z,48.86
2018-03-04T06:57:03.390Z,47.61
2018-03-04T06:59:32.077Z,49.08
2018-03-04T07:02:00.752Z,50.72
2018-03-04T07:04:29.447Z,48.72
2018-03-04T07:06:58.064Z,48.00
2018-03-04T07:09:27.532Z,45.93
2018-03-04T07:11:56.482Z,47.08
2018-03-04T07:14:25.211Z,50.35
2018-03-04T07:16:53.898Z,50.96
2018-03-04T07:19:22.932Z,52.08
2018-03-04T07:21:52.398Z,53.44
2018-03-04T07:24:20.978Z,53.42
2018-03-04T07:26:49.707Z,50.40
2018-03-04T07:29:19.171Z,50.27
2018-03-04T07:31:47.860Z,50.33
2018-03-04T07:34:16.946Z,50.51
2018-03-04T07:36:45.533Z,50.84
2018-03-04T07:39:14.223Z,49.88
2018-03-04T07:41:44.135Z,52.21
2018-03-04T07:44:12.761Z,53.63
2018-03-04T07:46:42.219Z,51.05
2018-03-04T07:49:11.216Z,52.06
2018-03-04T07:51:39.865Z,52.62
2018-03-04T07:54:08.978Z,53.41
2018-03-04T07:56:37.681Z,51.41
2018-03-04T07:59:06.372Z,48.68
2018-03-04T08:01:35.008Z,50.66
2018-03-04T08:04:04.865Z,52.40
2018-03-04T08:06:33.499Z,53.20
2018-03-04T08:09:02.959Z,52.68
2018-03-04T08:11:31.734Z,50.65
2018-03-04T08:14:00.430Z,49.10
2018-03-04T08:16:29.011Z,49.31
2018-03-04T08:18:57.900Z,45.10
2018-03-04T08:21:26.585Z,47.63
2018-03-04T08:23:55.174Z,46.51
2018-03-04T08:26:41.876Z,45.34
2018-03-04T08:29:10.504Z,44.18
2018-03-04T08:31:39.971Z,45.19
2018-03-04T08:34:08.859Z,46.78
2018-03-04T08:36:37.550Z,46.32
2018-03-04T08:39:06.230Z,47.87
2018-03-04T08:41:35.120Z,46.25
2018-03-04T08:44:03.766Z,45.25
2018-03-04T08:46:32.496Z,44.34
2018-03-04T08:49:01.287Z,46.99
2018-03-04T08:51:29.968Z,46.06
2018-03-04T08:53:58.659Z,45.91
2018-03-04T08:56:27.445Z,46.19
2018-03-04T08:58:56.080Z,49.00
2018-03-04T09:01:25.528Z,48.65
2018-03-04T09:03:54.521Z,45.72
2018-03-04T09:06:23.109Z,44.29
2018-03-04T09:08:51.794Z,43.13
2018-03-04T09:11:20.579Z,42.05
2018-03-04T09:13:49.168Z,41.10
2018-03-04T09:16:17.884Z,44.95
2018-03-04T09:18:47.561Z,44.85
2018-03-04T09:21:16.244Z,43.28
2018-03-04T09:23:44.834Z,45.57
2018-03-04T09:26:13.827Z,46.01
2018-03-04T09:28:43.586Z,46.65
2018-03-04T09:31:13.039Z,45.15
2018-03-04T09:33:42.032Z,43.87
2018-03-04T09:36:10.718Z,46.45
2018-03-04T09:38:39.361Z,45.65
2018-03-04T09:41:08.090Z,41.91
2018-03-04T09:43:36.776Z,43.04
2018-03-04T09:46:05.353Z,40.11
2018-03-04T09:48:34.042Z,39.83
2018-03-04T09:51:02.626Z,39.51
2018-03-04T09:53:31.212Z,39.90
2018-03-04T09:55:59.997Z,39.63
2018-03-04T09:58:28.682Z,39.03
2018-03-04T10:00:57.348Z,40.06
2018-03-04T10:03:26.360Z,41.09
2018-03-04T10:05:55.210Z,39.68
2018-03-04T10:08:23.942Z,38.51
2018-03-04T10:10:52.938Z,38.25
2018-03-04T10:13:21.620Z,37.42
2018-03-04T10:15:50.256Z,36.77
2018-03-04T10:18:20.012Z,35.34
2018-03-04T10:20:48.568Z,34.38
2018-03-04T10:23:17.287Z,34.56
2018-03-04T10:25:46.068Z,34.86
2018-03-04T10:28:14.722Z,37.32
2018-03-04T10:30:43.441Z,38.86
2018-03-04T10:33:12.128Z,38.38
2018-03-04T10:35:40.776Z,36.78
2018-03-04T10:38:09.499Z,34.39
2018-03-04T10:40:38.293Z,34.34
2018-03-04T10:43:06.979Z,35.42
2018-03-04T10:45:35.620Z,36.16
2018-03-04T10:48:04.658Z,38.08
2018-03-04T10:50:33.217Z,40.24
2018-03-04T10:53:01.921Z,38.95
2018-03-04T10:55:30.814Z,39.47
2018-03-04T10:57:59.489Z,38.52
2018-03-04T11:00:28.234Z,39.12
2018-03-04T11:02:59.845Z,39.49
2018-03-04T11:05:28.425Z,43.27
2018-03-04T11:07:57.109Z,44.37
2018-03-04T11:10:26.059Z,41.73
2018-03-04T11:12:54.786Z,34.71
2018-03-04T11:15:23.389Z,34.06
2018-03-04T11:17:52.254Z,37.48
2018-03-04T11:20:20.948Z,35.38
2018-03-04T11:22:49.640Z,33.34
2018-03-04T11:25:18.486Z,37.02
2018-03-04T11:27:47.209Z,40.82
2018-03-04T11:30:15.895Z,44.08
2018-03-04T11:32:45.766Z,40.22
2018-03-04T11:35:14.495Z,38.18
2018-03-04T11:37:43.126Z,39.36
2018-03-04T11:40:12.744Z,37.98
2018-03-04T11:42:41.376Z,38.70
2018-03-04T11:45:09.962Z,40.81
2018-03-04T11:47:38.699Z,39.45
2018-03-04T11:50:07.433Z,41.87
2018-03-04T11:52:36.059Z,43.92
2018-03-04T11:55:05.524Z,44.07
2018-03-04T11:57:34.204Z,43.14
2018-03-04T12:00:02.893Z,40.38
2018-03-04T12:02:31.627Z,41.76
2018-03-04T12:05:01.085Z,40.78
2018-03-04T12:07:29.770Z,34.91
2018-03-04T12:09:58.763Z,40.63
2018-03-04T12:12:27.351Z,40.06
2018-03-04T12:14:55.972Z,40.39
2018-03-04T12:17:25.689Z,39.66
2018-03-04T12:19:55.141Z,35.78
2018-03-04T12:22:23.826Z,43.79
2018-03-04T12:24:53.029Z,43.93
2018-03-04T12:27:21.714Z,40.32
2018-03-04T12:29:50.295Z,43.43
2018-03-04T12:32:19.800Z,41.23
2018-03-04T12:34:48.484Z,43.15
2018-03-04T12:37:17.171Z,40.64
2018-03-04T12:39:45.851Z,41.26
2018-03-04T12:42:14.543Z,41.95
2018-03-04T12:44:43.188Z,44.57
2018-03-04T12:47:12.221Z,46.21
2018-03-04T12:49:40.874Z,45.96
2018-03-04T12:52:09.604Z,47.57
2018-03-04T12:54:38.328Z,49.75
2018-03-04T12:57:07.788Z,51.11
2018-03-04T12:59:36.473Z,51.76
2018-03-04T13:02:05.258Z,50.76
2018-03-04T13:04:33.903Z,50.84
2018-03-04T13:07:02.529Z,50.83
2018-03-04T13:09:31.315Z,52.29
2018-03-04T13:12:00.028Z,52.46
2018-03-04T13:14:28.695Z,51.33
2018-03-04T13:16:57.373Z,50.20
2018-03-04T13:19:26.059Z,50.51
2018-03-04T13:21:55.473Z,48.72
2018-03-04T13:24:24.952Z,50.83
2018-03-04T13:26:53.620Z,49.22
2018-03-04T13:29:22.306Z,46.88
2018-03-04T13:31:51.273Z,48.78
2018-03-04T13:34:20.028Z,48.09
2018-03-04T13:36:49.495Z,49.33
2018-03-04T13:39:18.376Z,51.93
2018-03-04T13:41:47.065Z,54.98
2018-03-04T13:44:15.748Z,56.50
2018-03-04T13:46:44.580Z,56.75
2018-03-04T13:49:14.042Z,54.81
2018-03-04T13:51:42.727Z,55.20
2018-03-04T13:54:11.455Z,55.47
2018-03-04T13:56:40.923Z,56.87
2018-03-04T13:59:09.503Z,55.92
2018-03-04T14:01:38.236Z,53.81
2018-03-04T14:04:07.692Z,55.20
2018-03-04T14:06:42.269Z,54.26
2018-03-04T14:09:11.724Z,54.71
2018-03-04T14:11:40.411Z,56.34
2018-03-04T14:14:09.096Z,58.50
2018-03-04T14:16:37.718Z,55.65
2018-03-04T14:19:07.188Z,55.28
2018-03-04T14:21:35.865Z,57.33
2018-03-04T14:24:04.555Z,58.90
2018-03-04T14:26:33.189Z,58.49
2018-03-04T14:29:02.637Z,59.69
2018-03-04T14:31:31.333Z,58.79
2018-03-04T14:33:59.961Z,61.71
2018-03-04T14:36:30.084Z,60.89
2018-03-04T14:38:58.821Z,61.47
2018-03-04T14:41:27.504Z,60.53
2018-03-04T14:43:56.298Z,60.76
2018-03-04T14:46:24.984Z,59.81
2018-03-04T14:48:54.340Z,59.11
2018-03-04T14:51:23.114Z,60.37
2018-03-04T14:53:52.578Z,59.00
2018-03-04T14:56:21.197Z,59.47
2018-03-04T14:58:50.718Z,60.48
2018-03-04T15:01:19.449Z,60.06
2018-03-04T15:03:48.078Z,60.30
2018-03-04T15:06:17.856Z,57.78
2018-03-04T15:08:46.531Z,59.43
2018-03-04T15:11:15.152Z,58.87
2018-03-04T15:13:44.621Z,61.13
2018-03-04T15:16:13.207Z,58.39
2018-03-04T15:18:41.893Z,57.65
2018-03-04T15:21:10.627Z,54.83
2018-03-04T15:23:40.078Z,56.36
2018-03-04T15:26:08.664Z,57.08
2018-03-04T15:28:37.450Z,59.21
2018-03-04T15:31:06.135Z,59.95
2018-03-04T15:33:34.766Z,61.40
2018-03-04T15:36:04.384Z,61.78
2018-03-04T15:38:33.114Z,62.77
2018-03-04T15:41:01.745Z,62.85
2018-03-04T15:43:31.158Z,63.10
2018-03-04T15:46:00.610Z,61.29
2018-03-04T15:48:29.295Z,62.72
2018-03-04T15:50:58.288Z,63.34
2018-03-04T15:53:26.932Z,63.13
2018-03-04T15:55:55.661Z,62.95
2018-03-04T15:58:24.718Z,63.10
2018-03-04T16:00:53.440Z,62.61
2018-03-04T16:03:22.124Z,61.90
2018-03-04T16:05:50.919Z,61.95
2018-03-04T16:08:19.612Z,61.51
2018-03-04T16:10:48.162Z,63.02
2018-03-04T16:13:17.176Z,63.60
2018-03-04T16:15:45.818Z,63.33
2018-03-04T16:18:14.548Z,63.25
2018-03-04T16:20:43.341Z,63.38
2018-03-04T16:23:12.028Z,64.40
2018-03-04T16:25:40.601Z,65.70
2018-03-04T16:28:09.554Z,63.90
2018-03-04T16:30:39.092Z,63.85
2018-03-04T16:33:07.791Z,65.43
2018-03-04T16:35:36.784Z,65.22
2018-03-04T16:38:05.361Z,65.06
2018-03-04T16:40:33.940Z,65.67
2018-03-04T16:43:03.135Z,65.73
2018-03-04T16:45:31.834Z,64.92
2018-03-04T16:48:00.413Z,63.77
2018-03-04T16:50:29.263Z,63.33
2018-03-04T16:52:58.001Z,63.17
2018-03-04T16:55:26.567Z,64.01
2018-03-04T16:57:55.572Z,64.30
2018-03-04T17:00:24.208Z,64.67
2018-03-04T17:02:52.942Z,65.14
2018-03-04T17:05:21.738Z,64.35
2018-03-04T17:07:50.522Z,65.10
2018-03-04T17:10:19.103Z,63.83
2018-03-04T17:12:47.893Z,63.61
2018-03-04T17:15:16.535Z,64.70
2018-03-04T17:17:45.265Z,64.00
2018-03-04T17:20:15.000Z,64.27
2018-03-04T17:22:43.726Z,62.68
2018-03-04T17:25:12.360Z,63.88
2018-03-04T17:27:41.099Z,64.95
2018-03-04T17:30:09.644Z,65.27
2018-03-04T17:32:38.369Z,65.18
2018-03-04T17:35:07.156Z,64.55
2018-03-04T17:37:35.794Z,64.28
2018-03-04T17:40:05.190Z,64.88
2018-03-04T17:42:34.659Z,64.68
2018-03-04T17:45:03.351Z,65.36
2018-03-04T17:47:32.118Z,64.38
2018-03-04T17:50:00.909Z,64.19
2018-03-04T17:52:29.550Z,64.43
2018-03-04T17:54:59.000Z,63.88
2018-03-04T17:57:27.783Z,64.29
2018-03-04T17:59:56.432Z,64.23
2018-03-04T18:02:25.156Z,64.68
2018-03-04T18:04:53.842Z,65.18
2018-03-04T18:07:22.527Z,63.92
2018-03-04T18:09:51.178Z,62.71
2018-03-04T18:12:20.171Z,62.09
2018-03-04T18:14:48.892Z,63.88
2018-03-04T18:17:17.532Z,62.43
2018-03-04T18:19:46.524Z,63.02
2018-03-04T18:22:15.256Z,62.24
2018-03-04T18:24:43.843Z,61.56
2018-03-04T18:27:12.440Z,60.68
2018-03-04T18:29:41.894Z,63.09
2018-03-04T18:32:10.570Z,61.08
2018-03-04T18:34:39.302Z,60.13
2018-03-04T18:37:07.952Z,59.66
2018-03-04T18:39:37.391Z,60.94
2018-03-04T18:42:06.199Z,60.12
2018-03-04T18:44:35.673Z,59.24
2018-03-04T18:47:08.084Z,60.70
2018-03-04T18:49:37.112Z,59.49
2018-03-04T18:52:05.839Z,59.47
2018-03-04T18:54:34.526Z,60.66
2018-03-04T18:57:03.663Z,60.31
2018-03-04T18:59:33.126Z,59.92
2018-03-04T19:02:01.750Z,59.70
2018-03-04T19:04:31.215Z,60.35
2018-03-04T19:06:59.863Z,60.38
2018-03-04T19:09:28.528Z,60.47
2018-03-04T19:11:58.289Z,60.74
2018-03-04T19:14:26.990Z,60.89
2018-03-04T19:16:55.629Z,61.62
2018-03-04T19:19:24.401Z,61.79
2018-03-04T19:21:53.755Z,61.29
2018-03-04T19:24:22.385Z,60.66
2018-03-04T19:26:52.049Z,61.56
2018-03-04T19:29:20.747Z,62.45
2018-03-04T19:31:49.420Z,64.87
2018-03-04T19:34:18.205Z,64.88
2018-03-04T19:36:46.891Z,61.76
2018-03-04T19:39:15.542Z,61.71
2018-03-04T19:41:44.410Z,60.46
2018-03-04T19:44:13.125Z,61.08
2018-03-04T19:46:41.767Z,60.97
2018-03-04T19:49:10.498Z,62.37
2018-03-04T19:51:39.044Z,61.62
2018-03-04T19:54:07.761Z,61.78
2018-03-04T19:56:36.617Z,61.42
2018-03-04T19:59:06.053Z,63.94
2018-03-04T20:01:34.737Z,63.84
2018-03-04T20:04:03.694Z,61.16
2018-03-04T20:06:32.419Z,63.09
2018-03-04T20:09:01.103Z,62.18
2018-03-04T20:11:29.846Z,63.94
2018-03-04T20:13:59.299Z,66.47
2018-03-04T20:16:27.984Z,64.72
2018-03-04T20:18:56.668Z,64.37
2018-03-04T20:21:25.358Z,63.66
2018-03-04T20:23:54.041Z,64.93
2018-03-04T20:26:22.998Z,64.36
2018-03-04T20:28:51.725Z,64.41
2018-03-04T20:31:20.363Z,63.69
2018-03-04T20:33:49.455Z,61.90
2018-03-04T20:36:18.184Z,62.85
2018-03-04T20:38:46.816Z,61.95
2018-03-04T20:41:16.284Z,62.79
2018-03-04T20:43:44.949Z,59.86
2018-03-04T20:46:13.592Z,60.73
2018-03-04T20:48:43.456Z,60.93
2018-03-04T20:51:12.142Z,61.01
2018-03-04T20:53:40.827Z,60.56
2018-03-04T20:56:09.563Z,60.46
2018-03-04T20:58:39.022Z,60.20
2018-03-04T21:01:07.709Z,60.13
2018-03-04T21:03:36.643Z,60.35
2018-03-04T21:06:06.061Z,59.42
2018-03-04T21:08:34.786Z,59.70
2018-03-04T21:11:03.779Z,58.74
2018-03-04T21:13:32.364Z,59.83
2018-03-04T21:16:01.057Z,59.70
2018-03-04T21:18:30.310Z,60.84
2018-03-04T21:20:59.750Z,60.33
2018-03-04T21:23:28.482Z,60.92
2018-03-04T21:25:57.953Z,59.66
2018-03-04T21:28:26.516Z,60.36
2018-03-04T21:30:55.213Z,59.26
2018-03-04T21:33:24.004Z,58.97
2018-03-04T21:35:53.514Z,58.33
2018-03-04T21:38:23.063Z,58.47
2018-03-04T21:40:52.787Z,57.88
2018-03-04T21:43:21.512Z,58.02
2018-03-04T21:45:50.145Z,57.17
2018-03-04T21:48:19.610Z,58.32
2018-03-04T21:50:48.281Z,58.31
2018-03-04T21:53:16.967Z,58.60
2018-03-04T21:55:46.071Z,58.50
2018-03-04T21:58:14.759Z,59.68
2018-03-04T22:00:43.423Z,59.68
2018-03-04T22:03:12.117Z,60.58
2018-03-04T22:05:40.800Z,61.17
2018-03-04T22:08:09.348Z,60.89
2018-03-04T22:10:38.285Z,60.16
2018-03-04T22:13:06.971Z,59.49
2018-03-04T22:15:35.657Z,59.31
2018-03-04T22:18:04.352Z,59.66
2018-03-04T22:20:33.126Z,58.72
2018-03-04T22:23:01.813Z,58.38
2018-03-04T22:25:31.015Z,58.92
2018-03-04T22:27:59.649Z,57.55
2018-03-04T22:30:29.100Z,58.55
2018-03-04T22:32:57.893Z,58.16
2018-03-04T22:35:26.469Z,57.24
2018-03-04T22:37:55.058Z,56.27
2018-03-04T22:40:23.842Z,56.00
2018-03-04T22:42:52.532Z,55.99
2018-03-04T22:45:21.265Z,57.44
2018-03-04T22:47:50.820Z,56.10
2018-03-04T22:50:19.506Z,56.26
2018-03-04T22:52:48.151Z,56.31
2018-03-04T22:55:16.878Z,57.25
2018-03-04T22:57:45.569Z,56.66
2018-03-04T23:00:14.151Z,57.48
2018-03-04T23:02:43.148Z,56.79
2018-03-04T23:05:11.720Z,56.47
2018-03-04T23:07:40.416Z,57.95
2018-03-04T23:10:09.156Z,57.46
2018-03-04T23:12:37.889Z,59.18
2018-03-04T23:15:06.536Z,58.89
2018-03-04T23:17:35.359Z,60.46
2018-03-04T23:20:04.158Z,62.55
2018-03-04T23:22:32.939Z,60.53
2018-03-04T23:25:01.723Z,58.01
2018-03-04T23:27:30.410Z,57.64
2018-03-04T23:29:59.044Z,54.56
2018-03-04T23:32:28.705Z,54.93
2018-03-04T23:34:57.252Z,55.22
2018-03-04T23:37:25.975Z,54.40
2018-03-04T23:39:54.660Z,55.89
2018-03-04T23:42:23.349Z,58.53
2018-03-04T23:44:52.033Z,59.43
2018-03-04T23:47:21.693Z,59.12
2018-03-04T23:49:50.425Z,56.99
2018-03-04T23:52:19.055Z,57.78
2018-03-04T23:54:48.673Z,58.73
2018-03-04T23:57:17.404Z,58.38
2018-03-04T23:59:46.058Z,57.88
